Decoded Metar for SAOC (RIO CUARTO in ARGENTINA) (IATA:RCU) | Meteo·Mobile Aviation Weather
aviador You're here:

SAOC Decoded Metar

RIO CUARTO in ARGENTINA
Report Time2019-01-18 11:00:00
UTC Time2019-01-18 11:34:52
Flight Rules vfr VFR
WindCalm
Visibility9999 m
Phenomena:N/A
Clouds:N/A
Expected CloudBase > 400 ft AGL from Temp-Dew spread
CeilingNone
Temp12°C (ISA -0)
Dew Point11°C (94% RH)
QNH1023 hPa
Density Alt1,194 ft
Elevation1,381 ft
Report Wrong Elevation
Raw Report
METAR SAOC 181100Z 00000KT CAVOK 12/11 Q1023=

Extra information for SAOC:More info

Metar Taf Metar & Taf Last 4 Metars F.Rules Stats Wind Profile Meteogram Temp Stats Airport Information Weather charts Add Link Nearby VenuesMetar ALERT Operation Metar Decoded Social comments